Time;durP1;ratioP1;P1;durP2;ratioP2;P2;SDS_P1;SDS_P2;PMS_P1;PMS_P2;Temp;Humidity;BMP_temperature;BMP_pressure;BME280_temperature;BME280_humidity;BME280_pressure;Samples;Min_cycle;Max_cycle;Signal;HPM_P1;HPM_P2
2023/12/13 00:00:07;;;;;;;0.50;0.40;;;10.40;99.90;;;;;;5012983;28;20210;-68
2023/12/13 00:02:33;;;;;;;0.80;0.40;;;10.40;99.90;;;;;;5001927;28;20175;-67
2023/12/13 00:05:01;;;;;;;1.65;0.70;;;10.40;99.90;;;;;;5009664;28;20198;-68
2023/12/13 00:07:28;;;;;;;0.95;0.43;;;10.40;99.90;;;;;;5006310;28;20261;-68
2023/12/13 00:09:56;;;;;;;0.68;0.40;;;10.40;99.90;;;;;;5015473;28;20252;-70
2023/12/13 00:12:24;;;;;;;0.52;0.40;;;10.40;99.90;;;;;;5007611;28;20209;-68
2023/12/13 00:14:55;;;;;;;0.93;0.45;;;10.40;99.90;;;;;;5009717;28;20229;-67
2023/12/13 00:17:20;;;;;;;0.82;0.50;;;10.40;99.90;;;;;;5005785;28;20202;-68
2023/12/13 00:19:48;;;;;;;1.08;0.55;;;10.40;99.90;;;;;;5012105;28;20198;-67
2023/12/13 00:22:16;;;;;;;0.88;0.60;;;10.40;99.90;;;;;;5005238;28;20273;-69
2023/12/13 00:24:46;;;;;;;0.88;0.30;;;10.40;99.90;;;;;;5008315;28;20202;-66
2023/12/13 00:27:12;;;;;;;1.17;0.50;;;10.50;99.90;;;;;;4999647;28;20167;-69
2023/12/13 00:29:41;;;;;;;1.52;0.40;;;10.50;99.90;;;;;;5011981;28;20480;-67
2023/12/13 00:32:06;;;;;;;1.23;0.40;;;10.50;99.90;;;;;;5001337;28;20206;-67
2023/12/13 00:34:34;;;;;;;1.42;0.50;;;10.50;99.90;;;;;;5010473;28;20210;-66
2023/12/13 00:37:00;;;;;;;0.88;0.30;;;10.50;99.90;;;;;;4995869;28;20210;-68
2023/12/13 00:39:28;;;;;;;0.70;0.40;;;10.50;99.90;;;;;;5008312;28;20198;-68
2023/12/13 00:41:53;;;;;;;0.73;0.40;;;10.50;99.90;;;;;;5009772;28;20181;-68
2023/12/13 00:44:21;;;;;;;0.80;0.40;;;10.60;99.90;;;;;;5004114;28;20202;-68
2023/12/13 00:46:49;;;;;;;0.40;0.20;;;10.50;99.90;;;;;;5011625;28;20254;-68
2023/12/13 00:49:18;;;;;;;1.65;0.45;;;10.50;99.90;;;;;;5008427;28;20178;-68
2023/12/13 00:51:43;;;;;;;0.73;0.52;;;10.50;99.90;;;;;;5021664;28;20199;-68
2023/12/13 00:54:09;;;;;;;1.27;0.40;;;10.40;99.90;;;;;;5009101;28;20193;-68
2023/12/13 00:56:36;;;;;;;0.77;0.40;;;10.60;99.90;;;;;;5010288;28;20310;-67
2023/12/13 00:59:02;;;;;;;2.08;0.70;;;10.50;99.90;;;;;;5009511;28;20202;-68
2023/12/13 01:01:32;;;;;;;1.00;0.50;;;10.60;99.90;;;;;;5010795;28;20174;-68
2023/12/13 01:04:00;;;;;;;0.93;0.50;;;10.50;99.90;;;;;;5006982;28;20185;-68
2023/12/13 01:06:30;;;;;;;0.60;0.40;;;10.60;99.90;;;;;;5006297;28;20175;-68
2023/12/13 01:08:56;;;;;;;1.13;0.60;;;10.50;99.90;;;;;;5011677;28;20194;-68
2023/12/13 01:11:24;;;;;;;1.08;0.55;;;10.50;99.90;;;;;;5006794;28;20178;-67
2023/12/13 01:13:52;;;;;;;1.90;0.60;;;10.50;99.90;;;;;;5007732;28;20184;-67
2023/12/13 01:16:20;;;;;;;1.50;0.60;;;10.50;99.90;;;;;;5009349;28;20269;-68
2023/12/13 01:18:48;;;;;;;1.00;0.40;;;10.60;99.90;;;;;;5010948;28;20202;-67
2023/12/13 01:21:17;;;;;;;0.80;0.50;;;10.70;99.90;;;;;;5007444;28;20182;-67
2023/12/13 01:23:42;;;;;;;0.55;0.35;;;10.50;99.90;;;;;;4999824;28;20171;-68
2023/12/13 01:26:10;;;;;;;0.90;0.40;;;10.50;99.90;;;;;;5010204;28;20195;-68
2023/12/13 01:28:36;;;;;;;1.15;0.50;;;10.60;99.90;;;;;;5009620;28;20182;-68
2023/12/13 01:31:10;;;;;;;1.13;0.50;;;10.60;99.90;;;;;;5006353;28;20229;-68
2023/12/13 01:33:40;;;;;;;0.70;0.40;;;10.60;99.90;;;;;;5003384;28;20286;-67
2023/12/13 01:36:08;;;;;;;1.13;0.47;;;10.60;99.90;;;;;;5001463;28;20175;-68
2023/12/13 01:38:37;;;;;;;1.65;0.50;;;10.70;99.90;;;;;;5010894;28;20202;-68
2023/12/13 01:41:03;;;;;;;1.77;0.70;;;10.70;99.90;;;;;;5001369;28;20205;-68
2023/12/13 01:43:29;;;;;;;0.90;0.50;;;10.70;99.90;;;;;;5003294;28;20178;-68
2023/12/13 01:45:57;;;;;;;1.10;0.55;;;10.70;99.90;;;;;;4997367;28;20427;-68
2023/12/13 01:48:25;;;;;;;1.40;0.50;;;10.70;99.90;;;;;;5012269;28;20202;-68
2023/12/13 01:50:54;;;;;;;1.65;0.80;;;10.80;99.90;;;;;;5012426;28;20179;-68
2023/12/13 01:53:22;;;;;;;1.60;0.60;;;10.80;99.90;;;;;;5010191;28;21037;-67
2023/12/13 01:55:48;;;;;;;1.88;0.45;;;10.80;99.90;;;;;;5012810;28;20186;-67
2023/12/13 01:58:16;;;;;;;0.95;0.70;;;10.80;99.90;;;;;;5011008;28;20187;-67
2023/12/13 02:00:45;;;;;;;1.60;0.60;;;10.90;99.90;;;;;;5017357;28;20238;-67
2023/12/13 02:03:14;;;;;;;1.50;0.60;;;10.90;99.90;;;;;;5021832;28;20216;-68
2023/12/13 02:05:42;;;;;;;2.58;0.75;;;10.90;99.90;;;;;;5023601;28;20211;-68
2023/12/13 02:08:10;;;;;;;2.30;0.82;;;10.90;99.90;;;;;;5021147;28;20281;-67
2023/12/13 02:10:36;;;;;;;1.98;0.70;;;10.90;99.90;;;;;;5016690;28;20198;-67
2023/12/13 02:13:06;;;;;;;1.50;0.60;;;11.00;99.90;;;;;;5015003;28;20195;-67
2023/12/13 02:15:35;;;;;;;2.80;0.60;;;10.90;99.90;;;;;;5018388;28;20233;-67
2023/12/13 02:18:05;;;;;;;1.67;0.60;;;10.90;99.90;;;;;;5015206;28;20195;-68
2023/12/13 02:20:33;;;;;;;2.67;0.70;;;11.00;99.90;;;;;;5012016;28;20211;-67
2023/12/13 02:22:59;;;;;;;2.25;0.93;;;11.00;99.90;;;;;;5009074;28;20183;-67
2023/12/13 02:25:36;;;;;;;1.70;0.60;;;11.00;99.90;;;;;;5002296;28;20179;-71
2023/12/13 02:28:03;;;;;;;1.48;0.50;;;11.00;99.90;;;;;;5025392;28;20217;-72
2023/12/13 02:30:31;;;;;;;1.60;0.50;;;11.00;99.90;;;;;;5015965;28;20278;-73
2023/12/13 02:32:57;;;;;;;1.98;0.57;;;11.00;99.90;;;;;;5016460;28;20203;-72
2023/12/13 02:35:23;;;;;;;1.80;0.70;;;11.00;99.90;;;;;;5014046;28;20438;-68
2023/12/13 02:37:49;;;;;;;2.53;0.70;;;11.10;99.90;;;;;;5012332;28;20183;-72
2023/12/13 02:40:19;;;;;;;1.17;0.60;;;11.10;99.90;;;;;;5007845;28;20210;-71
2023/12/13 02:42:45;;;;;;;2.00;0.80;;;11.10;99.90;;;;;;5010542;28;20232;-73
2023/12/13 02:45:12;;;;;;;2.08;0.65;;;11.00;99.90;;;;;;5002959;28;20190;-70
2023/12/13 02:47:41;;;;;;;1.65;0.57;;;11.10;99.90;;;;;;5015343;28;20175;-72
2023/12/13 02:50:13;;;;;;;2.72;0.77;;;11.10;99.90;;;;;;5013787;28;20206;-72
2023/12/13 02:52:40;;;;;;;1.25;0.60;;;11.10;99.90;;;;;;5015864;28;20186;-72
2023/12/13 02:55:06;;;;;;;1.45;0.60;;;11.10;99.90;;;;;;5015907;28;20224;-72
2023/12/13 02:57:32;;;;;;;1.70;0.52;;;11.10;99.90;;;;;;5012931;28;20266;-71
2023/12/13 03:00:03;;;;;;;1.42;0.68;;;11.00;99.90;;;;;;5018692;28;20285;-72
2023/12/13 03:02:29;;;;;;;2.20;0.68;;;11.10;99.90;;;;;;5012242;28;20191;-72
2023/12/13 03:04:57;;;;;;;3.58;0.70;;;11.10;99.90;;;;;;5009124;28;21058;-72
2023/12/13 03:07:22;;;;;;;1.08;0.57;;;11.10;99.90;;;;;;5015259;28;20198;-73
2023/12/13 03:09:50;;;;;;;0.93;0.50;;;11.10;99.90;;;;;;5009872;28;20187;-72
2023/12/13 03:12:18;;;;;;;1.67;0.50;;;11.10;99.90;;;;;;5013974;28;20434;-73
2023/12/13 03:14:44;;;;;;;1.65;0.70;;;11.10;99.90;;;;;;5000256;28;20277;-68
2023/12/13 03:17:09;;;;;;;1.48;0.60;;;11.00;99.90;;;;;;5010179;28;20198;-70
2023/12/13 03:19:35;;;;;;;2.03;0.52;;;11.00;99.90;;;;;;5015596;28;20201;-73
2023/12/13 03:22:01;;;;;;;2.05;0.60;;;11.00;99.90;;;;;;5015651;28;20280;-71
2023/12/13 03:24:26;;;;;;;3.25;0.60;;;11.00;99.90;;;;;;5019644;28;20229;-70
2023/12/13 03:26:52;;;;;;;2.00;0.80;;;11.00;99.90;;;;;;5012624;28;20190;-71
2023/12/13 03:29:20;;;;;;;1.27;0.60;;;10.90;99.90;;;;;;4998274;28;20243;-68
2023/12/13 03:31:45;;;;;;;1.85;0.60;;;10.90;99.90;;;;;;5005146;28;20278;-73
2023/12/13 03:34:14;;;;;;;2.08;0.68;;;10.90;99.90;;;;;;5011821;28;20290;-72
2023/12/13 03:36:42;;;;;;;1.45;0.60;;;10.80;99.90;;;;;;4998362;28;20194;-72
2023/12/13 03:39:12;;;;;;;1.13;0.50;;;10.80;99.90;;;;;;5012420;28;20261;-72
2023/12/13 03:41:38;;;;;;;0.88;0.50;;;10.80;99.90;;;;;;5003710;28;20176;-70
2023/12/13 03:44:04;;;;;;;1.65;0.50;;;10.80;99.90;;;;;;5011654;28;20241;-71
2023/12/13 03:46:34;;;;;;;1.33;0.63;;;10.80;99.90;;;;;;5018326;28;20253;-72
2023/12/13 03:49:00;;;;;;;1.13;0.60;;;10.80;99.90;;;;;;5012983;28;20178;-71
2023/12/13 03:51:25;;;;;;;1.45;0.50;;;10.70;99.90;;;;;;5014250;28;20190;-72
2023/12/13 03:53:53;;;;;;;2.15;0.60;;;10.80;99.90;;;;;;5013660;28;20203;-72
2023/12/13 03:56:21;;;;;;;1.63;0.63;;;10.80;99.90;;;;;;5014919;28;20183;-68
2023/12/13 03:58:47;;;;;;;1.10;0.50;;;10.70;99.90;;;;;;5001866;28;20175;-72
2023/12/13 04:01:12;;;;;;;2.00;0.70;;;10.70;99.90;;;;;;5010916;28;20241;-71
2023/12/13 04:03:38;;;;;;;1.70;0.88;;;10.80;99.90;;;;;;5014356;28;20274;-73
2023/12/13 04:06:06;;;;;;;1.33;0.60;;;10.70;99.90;;;;;;5014627;28;20174;-72
2023/12/13 04:08:34;;;;;;;2.63;0.65;;;10.80;99.90;;;;;;5014473;28;20171;-70
2023/12/13 04:11:01;;;;;;;2.90;0.68;;;10.80;99.90;;;;;;5011414;28;20175;-70
2023/12/13 04:13:27;;;;;;;2.20;0.70;;;10.80;99.90;;;;;;5007930;28;20198;-70
2023/12/13 04:15:55;;;;;;;1.85;0.60;;;10.70;99.90;;;;;;5000550;28;20369;-69
2023/12/13 04:18:20;;;;;;;1.48;0.60;;;10.80;99.90;;;;;;5010400;28;20191;-67
2023/12/13 04:20:46;;;;;;;1.30;0.60;;;10.70;99.90;;;;;;5009551;28;20218;-67
2023/12/13 04:23:14;;;;;;;1.60;0.70;;;10.70;99.90;;;;;;5003762;28;20218;-70
2023/12/13 04:25:41;;;;;;;2.53;0.73;;;10.70;99.90;;;;;;4999962;28;20159;-71
2023/12/13 04:28:07;;;;;;;2.08;0.65;;;10.70;99.90;;;;;;5010674;28;20178;-70
2023/12/13 04:30:33;;;;;;;1.70;0.60;;;10.70;99.90;;;;;;5012023;28;20232;-69
2023/12/13 04:32:58;;;;;;;1.55;0.88;;;10.60;99.90;;;;;;5003917;28;20210;-71
2023/12/13 04:35:24;;;;;;;2.03;0.70;;;10.60;99.90;;;;;;5003035;28;20222;-72
2023/12/13 04:37:52;;;;;;;1.30;0.73;;;10.60;99.90;;;;;;5014271;28;20345;-71
2023/12/13 04:40:17;;;;;;;3.88;0.90;;;10.60;99.90;;;;;;5012480;28;20209;-70
2023/12/13 04:42:48;;;;;;;2.17;0.70;;;10.60;99.90;;;;;;5011491;28;20198;-71
2023/12/13 04:45:13;;;;;;;4.88;1.00;;;10.60;99.90;;;;;;5011837;28;20182;-72
2023/12/13 04:47:39;;;;;;;3.10;0.80;;;10.60;99.90;;;;;;5011904;28;20195;-70
2023/12/13 04:50:08;;;;;;;1.95;0.93;;;10.60;99.90;;;;;;5013995;28;20206;-70
2023/12/13 04:52:34;;;;;;;1.98;0.98;;;10.50;99.90;;;;;;5008057;28;20195;-71
2023/12/13 04:55:00;;;;;;;3.45;0.93;;;10.60;99.90;;;;;;5013378;28;20181;-71
2023/12/13 04:57:25;;;;;;;4.05;1.08;;;10.60;99.90;;;;;;5010308;28;20208;-70
2023/12/13 04:59:53;;;;;;;3.42;0.85;;;10.60;99.90;;;;;;5011624;28;20210;-71
2023/12/13 05:02:21;;;;;;;2.88;0.90;;;10.60;99.90;;;;;;4995529;28;20199;-69
2023/12/13 05:04:52;;;;;;;3.75;1.10;;;10.60;99.90;;;;;;5015259;28;20205;-70
2023/12/13 05:07:18;;;;;;;2.97;1.08;;;10.60;99.90;;;;;;5001582;28;20213;-71
2023/12/13 05:09:43;;;;;;;5.47;1.30;;;10.60;99.90;;;;;;5012757;28;20273;-70
2023/12/13 05:12:09;;;;;;;2.78;1.00;;;10.60;99.90;;;;;;5012131;28;20294;-70
2023/12/13 05:14:37;;;;;;;3.80;1.10;;;10.60;99.90;;;;;;5012448;28;20178;-70
2023/12/13 05:17:03;;;;;;;1.67;0.95;;;10.60;99.90;;;;;;5013113;28;20175;-69
2023/12/13 05:19:33;;;;;;;2.65;0.90;;;10.60;99.90;;;;;;5012590;28;20297;-70
2023/12/13 05:21:59;;;;;;;3.95;0.85;;;10.60;99.90;;;;;;5012156;28;20210;-70
2023/12/13 05:24:27;;;;;;;2.00;0.75;;;10.60;99.90;;;;;;5010497;28;20194;-70
2023/12/13 05:26:52;;;;;;;2.72;0.73;;;10.60;99.90;;;;;;5010550;28;20202;-70
2023/12/13 05:29:18;;;;;;;2.15;0.68;;;10.60;99.90;;;;;;5012314;28;20186;-71
2023/12/13 05:31:46;;;;;;;2.40;1.00;;;10.60;99.90;;;;;;5013407;28;20191;-70
2023/12/13 05:34:11;;;;;;;2.17;0.70;;;10.60;99.90;;;;;;5010208;28;20227;-71
2023/12/13 05:36:39;;;;;;;2.42;0.80;;;10.50;99.90;;;;;;5013331;28;20212;-71
2023/12/13 05:39:09;;;;;;;2.65;0.80;;;10.50;99.90;;;;;;5012812;28;22081;-69
2023/12/13 05:41:37;;;;;;;1.48;0.80;;;10.40;99.90;;;;;;5014136;28;20209;-69
2023/12/13 05:44:05;;;;;;;1.90;0.80;;;10.40;99.90;;;;;;5009152;28;20183;-70
2023/12/13 05:46:34;;;;;;;2.00;0.65;;;10.30;99.90;;;;;;4998803;28;20246;-71
2023/12/13 05:49:05;;;;;;;1.77;0.80;;;10.30;99.90;;;;;;5012981;28;20183;-68
2023/12/13 05:51:33;;;;;;;2.38;0.80;;;10.30;99.90;;;;;;5004889;28;20214;-71
2023/12/13 05:53:59;;;;;;;2.75;0.95;;;10.20;99.90;;;;;;4994279;28;20359;-71
2023/12/13 05:56:24;;;;;;;2.65;0.90;;;10.10;99.90;;;;;;5005127;28;20171;-72
2023/12/13 05:58:50;;;;;;;1.88;0.95;;;10.00;99.90;;;;;;5009303;28;20199;-72
2023/12/13 06:01:20;;;;;;;2.33;1.38;;;10.00;99.90;;;;;;4994306;28;20178;-71
2023/12/13 06:03:46;;;;;;;3.88;1.30;;;10.00;99.90;;;;;;5000223;28;20175;-70
2023/12/13 06:06:11;;;;;;;1.20;0.85;;;9.90;99.90;;;;;;5011152;28;20242;-72
2023/12/13 06:08:40;;;;;;;3.92;1.23;;;9.80;99.90;;;;;;5011928;28;20175;-72
2023/12/13 06:11:08;;;;;;;2.67;1.60;;;9.80;99.90;;;;;;5013361;28;20272;-70
2023/12/13 06:13:34;;;;;;;2.15;1.10;;;9.70;99.90;;;;;;5013615;28;20183;-70
2023/12/13 06:16:00;;;;;;;2.83;1.23;;;9.70;99.90;;;;;;5025435;28;20236;-70
2023/12/13 06:18:28;;;;;;;2.03;1.10;;;9.60;99.90;;;;;;5007501;28;20497;-70
2023/12/13 06:20:56;;;;;;;4.25;1.20;;;9.50;99.90;;;;;;4993881;28;20199;-70
2023/12/13 06:23:23;;;;;;;4.72;1.40;;;9.50;99.90;;;;;;5010287;28;20175;-69
2023/12/13 06:25:49;;;;;;;2.47;1.30;;;9.40;99.90;;;;;;5004063;28;20199;-71
2023/12/13 06:28:17;;;;;;;6.32;3.58;;;9.30;99.90;;;;;;5010936;28;20175;-69
2023/12/13 06:30:42;;;;;;;7.28;4.03;;;9.30;99.90;;;;;;5009848;28;20193;-71
2023/12/13 06:33:08;;;;;;;4.83;2.40;;;9.20;99.90;;;;;;5012661;28;20198;-71
2023/12/13 06:35:35;;;;;;;2.20;1.60;;;9.20;99.90;;;;;;5013680;28;20179;-71
2023/12/13 06:38:00;;;;;;;3.58;1.70;;;9.10;99.90;;;;;;5001219;28;20175;-71
2023/12/13 06:40:26;;;;;;;2.35;1.08;;;9.30;99.90;;;;;;5013142;28;20195;-70
2023/12/13 06:42:52;;;;;;;3.37;1.40;;;9.00;99.90;;;;;;5016355;28;20182;-70
2023/12/13 06:45:18;;;;;;;2.40;1.40;;;9.10;99.90;;;;;;5016450;28;20238;-69
2023/12/13 06:47:43;;;;;;;2.10;1.30;;;9.00;99.90;;;;;;5016002;28;20253;-70
2023/12/13 06:50:14;;;;;;;6.85;1.85;;;9.00;99.90;;;;;;5016142;28;20191;-70
2023/12/13 06:52:41;;;;;;;3.50;1.90;;;9.00;99.90;;;;;;5016456;28;20175;-70
2023/12/13 06:55:07;;;;;;;3.30;1.40;;;9.00;99.90;;;;;;5016339;28;20178;-71
2023/12/13 06:57:35;;;;;;;4.82;1.38;;;9.00;99.90;;;;;;5016248;28;20259;-70
2023/12/13 07:00:03;;;;;;;2.70;1.30;;;9.00;99.90;;;;;;5015934;28;20194;-70
2023/12/13 07:02:29;;;;;;;3.80;1.58;;;9.00;99.90;;;;;;5007736;28;20328;-71
2023/12/13 07:04:54;;;;;;;5.17;1.53;;;8.90;99.90;;;;;;5005023;28;20174;-70
2023/12/13 07:07:20;;;;;;;3.83;1.67;;;8.90;99.90;;;;;;5016040;28;20301;-71
2023/12/13 07:09:46;;;;;;;2.90;1.20;;;9.10;99.90;;;;;;5012144;28;20282;-70
2023/12/13 07:12:11;;;;;;;3.33;1.30;;;8.90;99.90;;;;;;5012928;28;20186;-67
2023/12/13 07:14:39;;;;;;;1.87;1.23;;;8.90;99.90;;;;;;5015980;28;20194;-69
2023/12/13 07:17:04;;;;;;;2.08;1.05;;;9.00;99.90;;;;;;5007925;28;20196;-69
2023/12/13 07:19:30;;;;;;;2.22;0.90;;;9.00;99.90;;;;;;4996280;28;20199;-70
2023/12/13 07:21:56;;;;;;;3.63;1.27;;;9.00;99.90;;;;;;5015602;28;20186;-71
2023/12/13 07:24:21;;;;;;;3.47;1.30;;;9.00;99.90;;;;;;5015776;28;20175;-69
2023/12/13 07:26:49;;;;;;;2.60;1.40;;;9.00;99.90;;;;;;5015820;28;20202;-70
2023/12/13 07:29:15;;;;;;;3.07;1.40;;;9.00;99.90;;;;;;5015928;28;20178;-67
2023/12/13 07:31:41;;;;;;;3.60;1.40;;;9.00;99.90;;;;;;5015724;28;20278;-70
2023/12/13 07:34:10;;;;;;;3.05;1.20;;;9.00;99.90;;;;;;5015700;28;20256;-70
2023/12/13 07:36:37;;;;;;;3.27;1.30;;;9.00;99.90;;;;;;4999961;28;20199;-71
2023/12/13 07:39:03;;;;;;;2.60;1.20;;;9.00;99.90;;;;;;5011600;28;20210;-71
2023/12/13 07:41:31;;;;;;;3.17;1.30;;;8.90;99.90;;;;;;5015584;28;20167;-69
2023/12/13 07:43:57;;;;;;;3.03;1.20;;;9.00;99.90;;;;;;5015301;28;20309;-71
2023/12/13 07:46:22;;;;;;;2.37;1.30;;;8.80;99.90;;;;;;5015557;28;20202;-70
2023/12/13 07:48:51;;;;;;;2.50;1.10;;;8.90;99.90;;;;;;5015455;28;20166;-69
2023/12/13 07:51:16;;;;;;;3.13;1.30;;;8.80;99.90;;;;;;5015053;28;20421;-70
2023/12/13 07:53:42;;;;;;;2.43;1.30;;;8.80;99.90;;;;;;5014546;28;20261;-70
2023/12/13 07:56:08;;;;;;;3.27;1.30;;;8.80;99.90;;;;;;5015136;28;20205;-71
2023/12/13 07:58:36;;;;;;;2.00;1.03;;;8.80;99.90;;;;;;5015253;28;20182;-71
2023/12/13 08:01:03;;;;;;;3.17;1.10;;;8.80;99.90;;;;;;5015064;28;20195;-67
2023/12/13 08:03:29;;;;;;;2.17;1.10;;;8.90;99.90;;;;;;5015364;28;20167;-70
2023/12/13 08:05:55;;;;;;;2.00;0.80;;;8.90;99.90;;;;;;5015084;28;20183;-70
2023/12/13 08:08:23;;;;;;;3.85;1.13;;;9.00;99.90;;;;;;5014827;28;20210;-71
2023/12/13 08:10:52;;;;;;;2.87;1.40;;;9.00;99.90;;;;;;5015160;28;20186;-71
2023/12/13 08:13:20;;;;;;;4.03;1.35;;;9.00;99.90;;;;;;5014780;28;20178;-70
2023/12/13 08:15:48;;;;;;;2.13;1.15;;;9.00;99.90;;;;;;5010125;28;20179;-70
2023/12/13 08:18:13;;;;;;;3.33;1.38;;;9.00;99.90;;;;;;5009579;28;20195;-71
2023/12/13 08:20:39;;;;;;;5.15;2.00;;;9.10;99.90;;;;;;5014704;28;20210;-69
2023/12/13 08:23:04;;;;;;;4.03;1.83;;;9.20;99.90;;;;;;5014854;28;20190;-70
2023/12/13 08:25:32;;;;;;;3.85;2.05;;;9.10;99.90;;;;;;5014458;28;20209;-71
2023/12/13 08:27:58;;;;;;;3.55;1.95;;;9.20;99.90;;;;;;5014787;28;20182;-70
2023/12/13 08:30:24;;;;;;;3.30;1.80;;;9.20;99.90;;;;;;5014464;28;20258;-69
2023/12/13 08:32:51;;;;;;;7.88;1.80;;;9.30;99.90;;;;;;5014699;28;20236;-70
2023/12/13 08:35:17;;;;;;;4.97;1.80;;;9.30;99.90;;;;;;5014375;28;20178;-71
2023/12/13 08:37:43;;;;;;;4.93;1.60;;;9.30;99.90;;;;;;5014579;28;20206;-70
2023/12/13 08:40:11;;;;;;;3.53;1.63;;;9.40;99.90;;;;;;5013697;28;20258;-70
2023/12/13 08:42:39;;;;;;;3.30;1.50;;;9.40;99.90;;;;;;5014407;28;20258;-69
2023/12/13 08:45:05;;;;;;;3.30;1.50;;;9.40;99.90;;;;;;5010872;28;20230;-70
2023/12/13 08:47:33;;;;;;;3.30;1.30;;;9.40;99.90;;;;;;5002977;28;20183;-69
2023/12/13 08:50:01;;;;;;;2.70;1.60;;;9.50;99.90;;;;;;4994757;28;20215;-69
2023/12/13 08:52:31;;;;;;;4.03;1.60;;;9.50;99.90;;;;;;4997017;28;20343;-69
2023/12/13 08:54:59;;;;;;;2.55;1.50;;;9.60;99.90;;;;;;5006172;28;20209;-66
2023/12/13 08:57:25;;;;;;;3.50;1.70;;;9.60;99.90;;;;;;5001788;28;20175;-69
2023/12/13 08:59:53;;;;;;;3.17;1.40;;;9.70;99.90;;;;;;5006766;28;20210;-70
2023/12/13 09:02:21;;;;;;;2.47;1.45;;;9.60;99.90;;;;;;5016334;28;20171;-70
2023/12/13 09:04:46;;;;;;;1.75;1.30;;;9.70;99.90;;;;;;5012652;28;20330;-70
2023/12/13 09:07:12;;;;;;;3.97;1.40;;;9.70;99.90;;;;;;5003565;28;20183;-69
2023/12/13 09:09:38;;;;;;;3.60;1.30;;;9.80;99.90;;;;;;5009840;28;20187;-72
2023/12/13 09:12:05;;;;;;;5.20;1.58;;;9.80;99.90;;;;;;5014055;28;20171;-69
2023/12/13 09:14:33;;;;;;;2.17;1.55;;;9.80;99.90;;;;;;5000447;28;20213;-70
2023/12/13 09:17:01;;;;;;;2.95;1.58;;;9.90;99.90;;;;;;5003474;28;20183;-70
2023/12/13 09:19:26;;;;;;;3.42;1.67;;;9.80;99.90;;;;;;5013410;28;20214;-70
2023/12/13 09:21:55;;;;;;;3.28;1.50;;;9.80;99.90;;;;;;5006846;28;20179;-70
2023/12/13 09:24:21;;;;;;;2.40;1.23;;;9.70;99.90;;;;;;5014706;28;20232;-67
2023/12/13 09:26:52;;;;;;;4.32;1.33;;;9.80;99.90;;;;;;5013851;28;20214;-69
2023/12/13 09:29:17;;;;;;;2.70;1.40;;;9.70;99.90;;;;;;5013295;28;20270;-69
2023/12/13 09:31:43;;;;;;;4.15;1.40;;;9.70;99.90;;;;;;5013285;28;20280;-69
2023/12/13 09:34:09;;;;;;;1.92;1.08;;;9.70;99.90;;;;;;5013777;28;20344;-67
2023/12/13 09:36:34;;;;;;;4.05;1.40;;;9.80;99.90;;;;;;5019025;28;20193;-68
2023/12/13 09:39:00;;;;;;;2.20;1.45;;;9.80;99.90;;;;;;5010602;28;20249;-69
2023/12/13 09:41:31;;;;;;;2.10;1.17;;;9.90;99.90;;;;;;5005373;28;20179;-70
2023/12/13 09:43:57;;;;;;;1.70;1.23;;;9.90;99.90;;;;;;5007757;28;20299;-70
2023/12/13 09:46:25;;;;;;;2.78;1.35;;;10.00;99.90;;;;;;5013146;28;20450;-69
2023/12/13 09:48:54;;;;;;;3.38;1.50;;;9.90;99.90;;;;;;4993889;28;20179;-67
2023/12/13 09:51:22;;;;;;;3.53;1.50;;;9.90;99.90;;;;;;5012647;28;20458;-69
2023/12/13 09:53:51;;;;;;;2.28;1.38;;;10.00;99.90;;;;;;5013603;28;20277;-69
2023/12/13 09:56:16;;;;;;;2.35;1.23;;;10.00;99.90;;;;;;5013642;28;20345;-70
2023/12/13 09:58:42;;;;;;;2.53;1.30;;;10.00;99.90;;;;;;5013246;28;20179;-67
2023/12/13 10:01:12;;;;;;;2.88;1.42;;;10.10;99.90;;;;;;5013275;28;20202;-68
2023/12/13 10:03:42;;;;;;;3.20;1.35;;;10.10;99.90;;;;;;5013590;28;20181;-70
2023/12/13 10:06:10;;;;;;;3.75;1.10;;;10.20;99.90;;;;;;5013502;28;20175;-69
2023/12/13 10:08:36;;;;;;;2.60;1.40;;;10.40;99.90;;;;;;5013539;28;20203;-69
2023/12/13 10:11:04;;;;;;;2.08;1.38;;;10.40;99.90;;;;;;5012571;28;20350;-69
2023/12/13 10:13:30;;;;;;;3.53;1.63;;;10.60;99.90;;;;;;5013446;28;20245;-69
2023/12/13 10:15:56;;;;;;;3.17;2.13;;;10.90;99.90;;;;;;4995413;28;20179;-69
2023/12/13 10:18:21;;;;;;;2.88;1.60;;;11.20;99.90;;;;;;5016843;28;20195;-69
2023/12/13 10:20:47;;;;;;;3.22;1.48;;;11.50;99.90;;;;;;5016689;28;20248;-69
2023/12/13 10:23:16;;;;;;;3.38;1.67;;;11.60;99.90;;;;;;5017245;28;20433;-68
2023/12/13 10:25:45;;;;;;;6.13;1.58;;;11.90;99.90;;;;;;5016515;28;20190;-68
2023/12/13 10:28:16;;;;;;;3.15;1.52;;;12.20;99.90;;;;;;5006591;28;20232;-68
2023/12/13 10:30:42;;;;;;;3.95;1.65;;;12.50;99.90;;;;;;5016212;28;20183;-69
2023/12/13 10:33:08;;;;;;;3.78;1.58;;;12.80;99.90;;;;;;5016493;28;20201;-67
2023/12/13 10:35:33;;;;;;;2.38;1.40;;;13.00;99.90;;;;;;5017727;28;20178;-67
2023/12/13 10:38:02;;;;;;;3.20;1.70;;;13.30;99.90;;;;;;5017131;28;20252;-69
2023/12/13 10:40:27;;;;;;;3.28;1.60;;;13.50;99.90;;;;;;5016278;28;20198;-69
2023/12/13 10:42:56;;;;;;;5.22;1.65;;;13.70;99.90;;;;;;5016274;28;20370;-68
2023/12/13 10:45:24;;;;;;;2.65;1.60;;;13.90;99.90;;;;;;5016113;28;20208;-70
2023/12/13 10:48:04;;;;;;;2.95;1.40;;;14.10;99.90;;;;;;5011390;28;20174;-70
2023/12/13 10:50:30;;;;;;;2.53;1.38;;;14.30;99.90;;;;;;4996941;28;20213;-68
2023/12/13 10:52:58;;;;;;;1.33;1.10;;;14.50;99.90;;;;;;4996987;28;20184;-70
2023/12/13 10:55:28;;;;;;;3.20;1.30;;;14.50;99.90;;;;;;5010221;28;20178;-66
2023/12/13 10:57:55;;;;;;;4.57;1.60;;;14.50;99.90;;;;;;5015488;28;20179;-67
2023/12/13 11:00:26;;;;;;;3.25;1.33;;;14.50;99.90;;;;;;5012061;28;20230;-70
2023/12/13 11:02:59;;;;;;;3.25;1.13;;;14.40;99.90;;;;;;5016517;28;20221;-70
2023/12/13 11:05:24;;;;;;;2.28;1.35;;;14.30;99.90;;;;;;5015569;28;20177;-68
2023/12/13 11:07:52;;;;;;;2.97;1.48;;;14.20;99.90;;;;;;5015730;28;20245;-68
2023/12/13 11:10:17;;;;;;;2.30;1.40;;;14.10;99.90;;;;;;5015603;28;20418;-69
2023/12/13 11:12:50;;;;;;;3.08;1.40;;;14.00;99.90;;;;;;5007900;28;20195;-67
2023/12/13 11:15:18;;;;;;;2.22;1.40;;;13.90;99.90;;;;;;5010532;28;20396;-68
2023/12/13 11:17:54;;;;;;;3.28;1.60;;;13.80;99.90;;;;;;5015489;28;20198;-70
2023/12/13 11:20:20;;;;;;;5.10;1.50;;;13.70;99.90;;;;;;5012168;28;20210;-68
2023/12/13 11:22:50;;;;;;;2.28;1.67;;;13.60;99.90;;;;;;5002998;28;20171;-69
2023/12/13 11:25:16;;;;;;;3.35;1.63;;;13.50;99.90;;;;;;5012192;28;20206;-69
2023/12/13 11:27:53;;;;;;;2.42;1.50;;;13.40;99.90;;;;;;5014945;28;20218;-70
2023/12/13 11:30:20;;;;;;;2.13;1.48;;;13.50;99.90;;;;;;5015090;28;20185;-71
2023/12/13 11:32:48;;;;;;;2.78;1.58;;;13.40;99.90;;;;;;5009072;28;20350;-70
2023/12/13 11:35:17;;;;;;;4.85;2.08;;;13.30;99.90;;;;;;5003120;28;20178;-71
2023/12/13 11:37:55;;;;;;;2.35;1.40;;;13.30;99.90;;;;;;5015194;28;20183;-70
2023/12/13 11:40:24;;;;;;;2.22;1.00;;;13.30;99.90;;;;;;5015224;28;20261;-69
2023/12/13 11:42:50;;;;;;;3.13;1.17;;;13.30;99.90;;;;;;5013961;28;20179;-69
2023/12/13 11:45:19;;;;;;;2.10;0.73;;;13.20;99.90;;;;;;5012132;28;20199;-71
2023/12/13 11:47:47;;;;;;;2.53;1.13;;;13.20;99.90;;;;;;4997159;28;20198;-70
2023/12/13 11:50:13;;;;;;;2.40;0.98;;;13.10;99.90;;;;;;5015471;28;20410;-72
2023/12/13 11:52:39;;;;;;;2.60;1.02;;;13.20;99.90;;;;;;5015181;28;20409;-70
2023/12/13 11:55:08;;;;;;;5.45;1.27;;;13.30;99.90;;;;;;5015030;28;20224;-68
2023/12/13 11:57:34;;;;;;;2.25;0.80;;;13.40;99.90;;;;;;5014998;28;20453;-69
2023/12/13 12:00:00;;;;;;;3.03;0.70;;;13.50;99.90;;;;;;5014807;28;20294;-68
2023/12/13 12:02:25;;;;;;;1.35;0.82;;;13.50;99.90;;;;;;5011571;28;20190;-70
2023/12/13 12:04:51;;;;;;;2.05;0.70;;;13.70;99.90;;;;;;5005113;28;20175;-70
2023/12/13 12:07:18;;;;;;;4.57;1.20;;;13.90;99.90;;;;;;5015057;28;20182;-66
2023/12/13 12:09:53;;;;;;;2.58;0.88;;;14.20;99.90;;;;;;5011993;28;20202;-68
2023/12/13 12:12:24;;;;;;;2.97;0.85;;;14.50;99.90;;;;;;5014502;28;20189;-68
2023/12/13 12:14:52;;;;;;;2.45;0.70;;;14.80;99.90;;;;;;5014691;28;20195;-69
2023/12/13 12:17:21;;;;;;;1.58;0.75;;;15.00;99.90;;;;;;5015078;28;20209;-70
2023/12/13 12:19:47;;;;;;;2.63;0.75;;;15.20;99.90;;;;;;5018866;28;20205;-68
2023/12/13 12:22:13;;;;;;;1.73;0.95;;;15.50;99.90;;;;;;5018636;28;20202;-69
2023/12/13 12:24:41;;;;;;;3.17;1.00;;;15.70;99.90;;;;;;5005491;28;20182;-69
2023/12/13 12:27:11;;;;;;;4.18;1.30;;;15.80;99.90;;;;;;5014075;28;20202;-68
2023/12/13 12:29:41;;;;;;;3.35;0.75;;;15.90;99.90;;;;;;5014321;28;20178;-65
2023/12/13 12:32:11;;;;;;;1.63;0.65;;;15.90;99.90;;;;;;4995329;28;20177;-69
2023/12/13 12:34:40;;;;;;;2.17;0.80;;;15.90;99.90;;;;;;5008122;28;20262;-68
2023/12/13 12:37:07;;;;;;;3.15;0.80;;;15.80;99.90;;;;;;4995040;28;20193;-70
2023/12/13 12:39:35;;;;;;;2.20;0.73;;;15.60;99.90;;;;;;4994369;28;20195;-70
2023/12/13 12:42:03;;;;;;;3.13;0.80;;;15.40;99.90;;;;;;5005713;28;20411;-69
2023/12/13 12:44:31;;;;;;;2.65;0.90;;;15.20;99.90;;;;;;5013806;28;20178;-66
2023/12/13 12:46:59;;;;;;;2.95;0.90;;;14.90;99.90;;;;;;5014462;28;20175;-67
2023/12/13 12:49:24;;;;;;;3.08;0.90;;;14.70;99.90;;;;;;5003853;28;20179;-70